• Join FlightAware (Why Join?)
  • Login
  • US Flag 
09:31AM EDT


 

Airport Tracker/Info


-or-


 

Live Flight TrackerFlight Track Log ✈ N387DS ✈ 14-Jul-2013 ✈ KTBR - KFFC

Flight Track Log - Related Links

Times and Time Zones

All times are in EDT time to prevent confusion due to time zone crossing. See the N387DS flight status page for this flight to view local times or setup timezone preferences in your user account.

Time Position Orientation Groundspeed Altitude Reporting Facility
EDT Latitude Longitude Course Direction KTS MPH feet Rate Location/Type
04:21PM 32.4261 -81.6989 291° West 76 87 2,500  Level Jacksonville Center
04:22PM 32.4453 -81.7331 304° West 86 99 3,100 600 Climbing Jacksonville Center
04:23PM 32.4747 -81.7597 323° Northwest 143 165 3,700 600 Climbing Jacksonville Center
04:24PM 32.4978 -81.7914 311° West 137 158 4,300 480 Climbing Jacksonville Center
04:25PM 32.5374 -81.9068 291° West  Level Estimated
04:26PM 32.5511 -81.9493 291° West  Level Estimated
04:26PM 32.5369 -81.8558 306° West 128 147 5,200  Level Atlanta Center
04:27PM 32.5586 -81.8947 303° West 128 147 5,600 360 Climbing Atlanta Center
04:28PM 32.5781 -81.9314 302° West 133 153 6,000 180 Climbing Atlanta Center
04:29PM 32.6017 -81.9703 306° West 138 159 6,000  Level Atlanta Center
04:30PM 32.6192 -82.0167 294° West 145 167 6,000  Level Atlanta Center
04:31PM 32.6303 -82.0656 285° West 156 180 6,000  Level Atlanta Center
04:32PM 32.6353 -82.1197 276° West 156 180 6,000  Level Atlanta Center
04:33PM 32.6425 -82.1689 280° West 161 185 6,000  Level Atlanta Center
04:34PM 32.6472 -82.2158 277° West 161 185 6,000  Level Atlanta Center
04:35PM 32.6522 -82.2675 277° West 161 185 6,000  Level Atlanta Center
04:36PM 32.6569 -82.3142 277° West 161 185 6,000  Level Atlanta Center
04:37PM 32.6619 -82.3636 277° West 161 185 6,000  Level Atlanta Center
04:38PM 32.6647 -82.4128 274° West 156 180 6,000  Level Atlanta Center
04:39PM 32.6675 -82.4619 274° West 156 180 6,000  Level Atlanta Center
04:40PM 32.6722 -82.5089 277° West 156 180 6,000  Level Atlanta Center
04:41PM 32.6811 -82.5606 282° West 156 180 6,000  Level Atlanta Center
04:42PM 32.7006 -82.6047 298° West 151 174 6,000  Level Atlanta Center
04:43PM 32.7219 -82.6464 301° West 151 174 6,000  Level Atlanta Center
04:44PM 32.7411 -82.6906 297° West 151 174 6,000  Level Atlanta Center
04:45PM 32.7603 -82.7347 297° West 151 174 6,000  Level Atlanta Center
04:46PM 32.7797 -82.7789 298° West 156 180 6,000  Level Atlanta Center
04:47PM 32.7967 -82.8281 292° West 156 180 6,000  Level Atlanta Center
04:48PM 32.8161 -82.8747 296° West 156 180 6,000  Level Atlanta Center
04:49PM 32.8311 -82.9189 292° West 156 180 6,000 -60 Level Atlanta Center
04:51PM 32.8667 -83.0000 298° West 150 173 5,900 -60 Descending Atlanta TRACON
04:51PM 32.8667 -83.0333 270° West 147 169 5,900  Level Atlanta TRACON
04:53PM 32.9000 -83.0833 308° West 155 178 5,900  Level Atlanta TRACON
04:54PM 32.9167 -83.1333 292° West 154 177 5,900  Level Atlanta TRACON
04:55PM 32.9167 -83.1833 270° West 156 180 5,900  Level Atlanta TRACON
04:55PM 32.9333 -83.2167 301° West 150 173 5,900  Level Atlanta TRACON
04:57PM 32.9500 -83.2667 292° West 155 178 5,900  Level Atlanta TRACON
04:57PM 32.9667 -83.3167 292° West 154 177 5,900  Level Atlanta TRACON
04:59PM 32.9833 -83.3667 292° West 154 177 6,000  Climbing Atlanta TRACON
05:00PM 33.0000 -83.4167 292° West 154 177 6,000  Level Atlanta TRACON
05:01PM 33.0000 -83.4667 270° West 154 177 6,000 -60 Level Atlanta TRACON
05:02PM 33.0167 -83.5167 292° West 153 176 5,900 -60 Descending Atlanta TRACON
05:03PM 33.0333 -83.5667 292° West 154 177 5,900  Level Atlanta TRACON
05:03PM 33.0500 -83.6000 301° West 151 174 5,900  Level Atlanta TRACON
05:04PM 33.0667 -83.6500 292° West 151 174 5,900  Level Atlanta TRACON
05:05PM 33.0833 -83.7000 292° West 152 175 6,000  Climbing Atlanta TRACON
05:07PM 33.1000 -83.7500 292° West 166 191 5,900  Descending Atlanta TRACON
05:08PM 33.1000 -83.8000 270° West 188 216 6,000  Climbing Atlanta TRACON
05:09PM 33.1333 -83.8500 309° West 147 169 5,900 -60 Descending Atlanta TRACON
05:10PM 33.1333 -83.8833 270° West 149 171 5,900  Level Atlanta TRACON
05:11PM 33.1500 -83.9333 292° West 146 168 5,900  Level Atlanta TRACON
05:12PM 33.1667 -83.9833 292° West 147 169 5,900  Level Atlanta TRACON
05:13PM 33.1833 -84.0333 292° West 149 171 6,000 60 Climbing Atlanta TRACON
05:13PM 33.2000 -84.0667 301° West 150 173 6,100 -180 Climbing Atlanta TRACON
05:15PM 33.2167 -84.1167 292° West 153 176 5,700 -480 Descending Atlanta TRACON
05:16PM 33.2167 -84.1667 270° West 147 169 5,200 -540 Descending Atlanta TRACON
05:16PM 33.2333 -84.2167 292° West 147 169 4,700 -540 Descending Atlanta TRACON
05:18PM 33.2500 -84.2500 301° West 147 169 4,200 -480 Descending Atlanta TRACON
05:19PM 33.2667 -84.3000 292° West 150 173 3,700 -540 Descending Atlanta TRACON
05:20PM 33.2833 -84.3500 292° West 152 175 3,200 -420 Descending Atlanta TRACON
05:20PM 33.3000 -84.4000 292° West 144 166 3,000 -240 Descending Atlanta TRACON